Time;durP1;ratioP1;P1;durP2;ratioP2;P2;SDS_P1;SDS_P2;PMS_P1;PMS_P2;Temp;Humidity;BMP_temperature;BMP_pressure;BME280_temperature;BME280_humidity;BME280_pressure;Samples;Min_cycle;Max_cycle;Signal;HPM_P1;HPM_P2
2022/10/04 00:00:35;;;;;;;19.02;12.35;;;;;;;9.97;100.00;102371.38;5014123;28;20037;-72
2022/10/04 00:03:39;;;;;;;20.67;13.07;;;;;;;9.98;100.00;102371.41;4988215;28;20038;-73
2022/10/04 00:06:11;;;;;;;22.05;13.20;;;;;;;9.95;100.00;102367.91;5000682;28;20041;-72
2022/10/04 00:08:57;;;;;;;21.23;12.75;;;;;;;9.99;100.00;102373.13;5013554;28;20025;-72
2022/10/04 00:11:28;;;;;;;18.83;12.82;;;;;;;10.00;100.00;102367.03;5012941;28;20033;-73
2022/10/04 00:13:58;;;;;;;24.85;13.45;;;;;;;9.98;100.00;102371.41;5014129;28;20044;-73
2022/10/04 00:16:30;;;;;;;21.13;13.77;;;;;;;9.96;100.00;102361.81;5013278;28;20526;-73
2022/10/04 00:19:13;;;;;;;21.63;12.68;;;;;;;9.95;100.00;102362.72;5011756;28;20034;-73
2022/10/04 00:21:50;;;;;;;19.70;12.30;;;;;;;9.88;100.00;102361.81;5004376;28;20058;-73
2022/10/04 00:24:34;;;;;;;19.92;12.45;;;;;;;9.79;100.00;102352.22;5000528;28;20026;-72
2022/10/04 00:27:18;;;;;;;;;;;;;;;9.78;100.00;102357.44;5013798;28;20025;-72
2022/10/04 00:30:08;;;;;;;17.13;12.20;;;;;;;9.63;100.00;102340.00;5013232;28;19910;-73
2022/10/04 00:32:39;;;;;;;16.95;12.70;;;;;;;9.60;100.00;102351.25;5012845;28;20164;-73
2022/10/04 00:35:24;;;;;;;17.63;12.80;;;;;;;9.54;100.00;102346.03;5013389;28;20022;-73
2022/10/04 00:38:07;;;;;;;23.60;12.85;;;;;;;9.51;100.00;102339.94;4998908;28;20041;-73
2022/10/04 00:40:37;;;;;;;20.83;13.45;;;;;;;9.46;100.00;102337.31;5001534;28;20034;-72
2022/10/04 00:43:09;;;;;;;25.92;14.00;;;;;;;9.39;100.00;102327.75;5020430;28;20091;-72
2022/10/04 00:45:44;;;;;;;19.52;14.00;;;;;;;9.45;100.00;102335.59;5011260;28;20596;-73
2022/10/04 00:48:46;;;;;;;20.88;15.43;;;;;;;9.42;100.00;102350.28;5013662;28;20057;-73
2022/10/04 00:51:38;;;;;;;19.63;14.98;;;;;;;9.41;100.00;102351.16;5009234;28;20038;-72
2022/10/04 00:54:11;;;;;;;21.42;13.52;;;;;;;9.40;100.00;102346.84;5011770;28;20030;-73
2022/10/04 00:56:47;;;;;;;17.15;14.10;;;;;;;9.34;100.00;102335.50;5012149;28;20030;-73
2022/10/04 00:59:39;;;;;;;20.98;14.13;;;;;;;9.31;100.00;102335.50;5004569;28;20026;-73
2022/10/04 01:02:13;;;;;;;18.88;13.52;;;;;;;9.27;100.00;102325.94;5024242;28;20049;-73
2022/10/04 01:04:55;;;;;;;22.15;14.32;;;;;;;9.23;100.00;102323.31;5012684;28;20057;-73
2022/10/04 01:07:30;;;;;;;22.45;15.45;;;;;;;9.21;100.00;102314.63;5011797;28;20549;-73
2022/10/04 01:10:01;;;;;;;22.67;14.73;;;;;;;9.18;100.00;102312.00;5013226;28;20029;-73
2022/10/04 01:12:49;;;;;;;22.13;15.30;;;;;;;9.15;100.00;102315.44;5011640;28;20022;-73
2022/10/04 01:15:30;;;;;;;17.38;14.48;;;;;;;9.09;100.00;102298.09;5002903;28;20041;-73
2022/10/04 01:18:13;;;;;;;23.23;15.70;;;;;;;9.11;100.00;102300.69;5012708;28;20117;-73
2022/10/04 01:20:47;;;;;;;24.00;15.00;;;;;;;9.10;100.00;102297.22;5006949;28;20088;-73
2022/10/04 01:23:49;;;;;;;25.00;14.82;;;;;;;9.08;100.00;102301.53;5012556;28;20026;-73
2022/10/04 01:26:33;;;;;;;23.73;15.50;;;;;;;9.08;100.00;102298.94;5010571;28;20120;-73
2022/10/04 01:29:10;;;;;;;21.90;14.13;;;;;;;9.05;100.00;102298.91;5011756;28;20069;-73
2022/10/04 01:31:39;;;;;;;23.08;15.15;;;;;;;8.98;100.00;102291.06;5011742;28;20409;-73
2022/10/04 01:34:06;;;;;;;21.08;14.10;;;;;;;8.96;100.00;102293.69;5012806;28;20128;-73
2022/10/04 01:36:32;;;;;;;21.52;15.02;;;;;;;8.88;100.00;102285.81;5011439;28;20374;-73
2022/10/04 01:38:58;;;;;;;20.05;14.95;;;;;;;8.88;100.00;102295.34;5012305;28;20061;-73
2022/10/04 01:41:36;;;;;;;20.73;14.40;;;;;;;8.82;100.00;102285.75;5012056;28;20084;-73
2022/10/04 01:44:05;;;;;;;21.92;14.85;;;;;;;8.81;100.00;102283.16;5012135;28;20021;-73
2022/10/04 01:46:35;;;;;;;23.13;15.23;;;;;;;8.75;100.00;102273.59;5010678;28;20054;-73
2022/10/04 01:49:06;;;;;;;21.52;15.07;;;;;;;8.80;100.00;102274.50;5012589;28;20465;-73
2022/10/04 01:51:42;;;;;;;22.10;15.18;;;;;;;8.85;100.00;102275.38;5011219;28;20034;-73
2022/10/04 01:54:11;;;;;;;25.23;16.02;;;;;;;8.84;100.00;102278.84;5012519;28;20022;-73
2022/10/04 01:56:45;;;;;;;22.58;15.73;;;;;;;8.88;100.00;102283.19;5011137;28;20028;-72
2022/10/04 01:59:22;;;;;;;26.85;16.23;;;;;;;8.90;100.00;102284.09;5012146;28;20026;-73
2022/10/04 02:01:47;;;;;;;24.10;16.60;;;;;;;8.91;100.00;102284.97;5011935;28;20030;-73
2022/10/04 02:04:20;;;;;;;25.23;15.23;;;;;;;8.87;100.00;102278.00;5015866;28;20026;-73
2022/10/04 02:06:50;;;;;;;24.40;16.70;;;;;;;8.81;100.00;102267.56;5011794;28;20752;-72
2022/10/04 02:09:24;;;;;;;22.73;15.55;;;;;;;8.77;100.00;102271.00;5010818;28;20084;-72
2022/10/04 02:11:51;;;;;;;;;;;;;;;8.75;100.00;102267.50;5009434;28;20159;-73
2022/10/04 02:14:20;;;;;;;20.75;14.57;;;;;;;8.66;100.00;102263.09;5011395;28;19917;-73
2022/10/04 02:16:51;;;;;;;24.92;16.70;;;;;;;8.57;100.00;102248.34;5014873;28;20377;-73
2022/10/04 02:19:16;;;;;;;27.67;16.00;;;;;;;8.58;100.00;102255.25;5005424;28;20470;-73
2022/10/04 02:21:43;;;;;;;23.92;16.00;;;;;;;8.54;100.00;102247.44;5010796;28;20121;-73
2022/10/04 02:24:09;;;;;;;22.02;15.82;;;;;;;8.52;100.00;102246.56;5011916;28;20104;-73
2022/10/04 02:26:34;;;;;;;23.52;16.42;;;;;;;8.48;100.00;102243.06;5010813;28;20022;-73
2022/10/04 02:28:59;;;;;;;23.35;16.45;;;;;;;8.46;100.00;102233.50;5015054;28;20033;-73
2022/10/04 02:34:11;;;;;;;28.38;17.35;;;;;;;8.29;100.00;102196.97;5016053;28;20037;-73
2022/10/04 02:36:38;;;;;;;23.35;16.73;;;;;;;8.43;100.00;102223.94;5014502;28;20023;-73
2022/10/04 02:39:12;;;;;;;26.67;17.85;;;;;;;8.40;100.00;102213.53;5015300;28;20041;-73
2022/10/04 02:41:47;;;;;;;28.42;17.58;;;;;;;8.37;100.00;102205.69;5015188;28;20026;-73
2022/10/04 02:44:28;;;;;;;30.30;16.58;;;;;;;8.35;100.00;102210.88;5016106;28;20104;-73
2022/10/04 02:47:19;;;;;;;24.75;16.38;;;;;;;8.30;100.00;102203.91;5014978;28;20128;-73
2022/10/04 02:49:48;;;;;;;23.65;17.17;;;;;;;8.33;100.00;102201.31;5009408;28;20038;-72
2022/10/04 02:52:30;;;;;;;25.13;16.95;;;;;;;8.28;100.00;102188.31;5015977;28;20021;-73
2022/10/04 02:55:30;;;;;;;27.13;17.75;;;;;;;8.26;100.00;102189.16;5014345;28;20030;-72
2022/10/04 02:57:58;;;;;;;26.67;17.15;;;;;;;8.21;100.00;102176.13;5015326;28;20473;-72
2022/10/04 03:00:29;;;;;;;27.08;18.73;;;;;;;8.20;100.00;102177.84;5014301;28;20069;-73
2022/10/04 03:03:16;;;;;;;24.30;17.90;;;;;;;8.17;100.00;102169.16;5015281;28;20531;-72
2022/10/04 03:05:45;;;;;;;27.58;18.60;;;;;;;8.18;100.00;102170.91;5001660;28;20433;-73
2022/10/04 03:08:11;;;;;;;24.30;18.00;;;;;;;8.15;100.00;102165.69;5014056;28;20018;-73
2022/10/04 03:10:37;;;;;;;29.08;18.02;;;;;;;8.14;100.00;102157.03;5013955;28;20489;-72
2022/10/04 03:13:03;;;;;;;29.13;18.98;;;;;;;8.12;100.00;102163.94;5014790;28;20493;-72
2022/10/04 03:15:29;;;;;;;28.33;18.42;;;;;;;8.07;100.00;102165.63;5013802;28;20046;-73
2022/10/04 03:17:54;;;;;;;31.38;19.98;;;;;;;8.09;100.00;102166.50;5014602;28;20049;-72
2022/10/04 03:20:20;;;;;;;30.60;19.83;;;;;;;8.08;100.00;102167.38;5014650;28;20141;-72
2022/10/04 03:22:49;;;;;;;27.02;19.67;;;;;;;8.02;100.00;102156.94;5013219;28;20022;-73
2022/10/04 03:25:20;;;;;;;29.70;20.25;;;;;;;8.03;100.00;102165.59;5013836;28;20037;-72
2022/10/04 03:27:46;;;;;;;26.73;19.33;;;;;;;7.96;100.00;102149.97;5010286;28;20037;-72
2022/10/04 03:30:14;;;;;;;36.25;20.55;;;;;;;7.96;100.00;102143.91;5014317;28;20022;-73
2022/10/04 03:32:40;;;;;;;34.67;19.88;;;;;;;8.00;100.00;102156.03;5012842;28;20489;-72
2022/10/04 03:35:16;;;;;;;30.13;19.88;;;;;;;8.00;100.00;102155.19;5012306;28;20450;-72
2022/10/04 03:37:42;;;;;;;27.10;19.90;;;;;;;7.94;100.00;102141.28;5013350;28;20034;-72
2022/10/04 03:40:08;;;;;;;26.83;19.13;;;;;;;7.96;100.00;102152.56;5014212;28;20033;-72
2022/10/04 03:42:36;;;;;;;34.38;20.45;;;;;;;7.90;100.00;102142.09;5013416;28;20033;-72
2022/10/04 03:45:07;;;;;;;29.05;19.42;;;;;;;7.92;100.00;102139.53;5013942;28;20122;-73
2022/10/04 03:47:39;;;;;;;32.13;19.60;;;;;;;7.86;100.00;102129.09;5013596;28;20056;-73
2022/10/04 03:50:26;;;;;;;30.52;19.88;;;;;;;7.86;100.00;102142.94;5012936;28;20037;-73
2022/10/04 03:53:02;;;;;;;30.88;19.80;;;;;;;7.86;100.00;102136.91;5014046;28;20030;-73
2022/10/04 03:55:47;;;;;;;31.70;19.90;;;;;;;7.84;100.00;102128.22;4996404;28;20026;-73
2022/10/04 03:58:16;;;;;;;34.05;19.80;;;;;;;7.77;100.00;102121.22;5007121;28;20070;-73
2022/10/04 04:00:52;;;;;;;29.45;18.77;;;;;;;7.82;100.00;102135.13;5012749;28;20072;-73
2022/10/04 04:03:19;;;;;;;36.83;20.00;;;;;;;7.78;100.00;102123.81;5013642;28;20437;-73
2022/10/04 04:05:51;;;;;;;30.67;19.83;;;;;;;7.77;100.00;102122.09;5013977;28;20069;-73
2022/10/04 04:08:31;;;;;;;32.10;19.38;;;;;;;7.72;100.00;102121.22;5012508;28;20037;-73
2022/10/04 04:10:58;;;;;;;27.95;19.25;;;;;;;7.79;100.00;102123.00;5001583;28;20025;-73
2022/10/04 04:13:42;;;;;;;34.65;18.98;;;;;;;7.76;100.00;102125.56;5012258;28;20010;-73
2022/10/04 04:16:08;;;;;;;30.17;18.67;;;;;;;7.76;100.00;102120.38;5006469;28;20508;-73
2022/10/04 04:18:36;;;;;;;26.25;18.42;;;;;;;7.77;100.00;102124.69;5012334;28;20037;-73
2022/10/04 04:21:05;;;;;;;29.63;18.35;;;;;;;7.74;100.00;102117.75;5013807;28;20481;-73
2022/10/04 04:23:40;;;;;;;28.80;19.27;;;;;;;7.77;100.00;102129.03;4999981;28;20027;-73
2022/10/04 04:26:27;;;;;;;30.45;19.65;;;;;;;7.73;100.00;102129.00;5015509;28;20014;-73
2022/10/04 04:29:03;;;;;;;31.60;17.77;;;;;;;7.66;100.00;102124.59;5013902;28;20038;-73
2022/10/04 04:31:59;;;;;;;24.70;17.45;;;;;;;7.66;100.00;102127.19;5012625;28;20036;-73
2022/10/04 04:34:28;;;;;;;30.83;19.63;;;;;;;7.66;100.00;102128.94;5013120;28;20018;-73
2022/10/04 04:37:03;;;;;;;34.47;19.35;;;;;;;7.63;100.00;102132.38;5013109;28;20092;-73
2022/10/04 04:39:35;;;;;;;31.38;20.15;;;;;;;7.61;100.00;102128.88;5012566;28;20417;-73
2022/10/04 04:42:05;;;;;;;35.38;19.17;;;;;;;7.57;100.00;102124.50;5013510;28;20033;-73
2022/10/04 04:44:31;;;;;;;32.63;19.80;;;;;;;7.57;100.00;102118.47;5007169;28;20469;-73
2022/10/04 04:46:59;;;;;;;30.42;18.95;;;;;;;7.55;100.00;102110.66;5013166;28;20049;-73
2022/10/04 04:49:28;;;;;;;28.02;18.42;;;;;;;7.60;100.00;102121.09;5012814;28;20022;-73
2022/10/04 04:51:56;;;;;;;32.53;19.20;;;;;;;7.58;100.00;102109.81;5012626;28;20018;-73
2022/10/04 04:54:24;;;;;;;29.80;19.33;;;;;;;7.60;100.00;102111.56;5011580;28;20091;-74
2022/10/04 04:56:52;;;;;;;32.22;19.23;;;;;;;7.59;100.00;102109.84;5013030;28;20020;-73
2022/10/04 04:59:21;;;;;;;29.73;18.80;;;;;;;7.60;100.00;102098.59;5013200;28;20065;-73
2022/10/04 05:01:48;;;;;;;34.25;18.05;;;;;;;7.59;100.00;102098.59;5012218;28;20056;-73
2022/10/04 05:04:17;;;;;;;32.15;18.65;;;;;;;7.57;100.00;102103.75;5013180;28;20026;-73
2022/10/04 05:06:45;;;;;;;33.67;19.05;;;;;;;7.59;100.00;102094.28;5012200;28;20476;-73
2022/10/04 05:09:43;;;;;;;32.17;17.27;;;;;;;7.54;100.00;102100.25;5012922;28;20049;-73
2022/10/04 05:12:22;;;;;;;24.77;16.95;;;;;;;7.56;100.00;102106.34;4975917;28;20489;-73
2022/10/04 05:14:53;;;;;;;28.58;17.67;;;;;;;7.53;100.00;102102.00;5012617;28;20030;-73
2022/10/04 05:17:25;;;;;;;34.65;17.48;;;;;;;7.51;100.00;102101.97;5012300;28;20496;-73
2022/10/04 05:19:56;;;;;;;31.80;15.88;;;;;;;7.47;100.00;102108.00;5013179;28;20029;-73
2022/10/04 05:22:24;;;;;;;26.90;16.05;;;;;;;7.41;100.00;102107.91;5011975;28;20088;-73
2022/10/04 05:24:55;;;;;;;27.27;15.65;;;;;;;7.42;100.00;102113.97;5011399;28;20061;-73
2022/10/04 05:27:31;;;;;;;30.33;15.65;;;;;;;7.35;100.00;102109.59;5008844;28;20030;-74
2022/10/04 05:30:07;;;;;;;25.63;16.20;;;;;;;7.35;100.00;102107.00;5001108;28;20485;-73
2022/10/04 05:33:06;;;;;;;24.42;16.15;;;;;;;7.35;100.00;102112.19;5025414;28;20041;-73
2022/10/04 05:36:18;;;;;;;23.33;14.52;;;;;;;7.26;100.00;102103.47;4999945;28;20039;-73
2022/10/04 05:38:52;;;;;;;25.17;14.40;;;;;;;7.33;100.00;102103.53;4972666;28;20046;-73
2022/10/04 05:41:41;;;;;;;21.55;14.13;;;;;;;7.30;100.00;102104.38;5012415;28;20029;-73
2022/10/04 05:44:30;;;;;;;21.70;14.10;;;;;;;7.30;100.00;102106.97;5011583;28;20478;-73
2022/10/04 05:47:00;;;;;;;28.77;15.15;;;;;;;7.27;100.00;102104.34;5011755;28;20089;-73
2022/10/04 05:49:32;;;;;;;23.95;15.70;;;;;;;7.32;100.00;102105.22;5009242;28;20034;-73
2022/10/04 05:52:04;;;;;;;23.80;14.40;;;;;;;7.34;100.00;102113.03;5013533;28;20028;-73
2022/10/04 05:54:34;;;;;;;23.67;13.43;;;;;;;7.31;100.00;102116.47;5011885;28;20018;-73
2022/10/04 05:57:41;;;;;;;24.05;13.38;;;;;;;7.33;100.00;102124.28;5011595;28;20017;-73
2022/10/04 06:00:12;;;;;;;32.17;13.90;;;;;;;7.37;100.00;102126.06;4982548;28;20129;-73
2022/10/04 06:03:08;;;;;;;29.05;13.68;;;;;;;7.38;100.00;102127.78;5010330;28;20042;-73
2022/10/04 06:05:40;;;;;;;33.72;14.35;;;;;;;7.42;100.00;102134.75;5011337;28;20022;-73
2022/10/04 06:08:23;;;;;;;23.08;13.73;;;;;;;7.47;100.00;102127.88;5012334;28;20473;-73
2022/10/04 06:10:54;;;;;;;23.42;13.55;;;;;;;7.54;100.00;102118.44;5011728;28;20477;-73
2022/10/04 06:13:59;;;;;;;25.80;13.70;;;;;;;7.62;100.00;102122.84;5011654;28;20030;-73
2022/10/04 06:17:01;;;;;;;25.70;13.18;;;;;;;7.71;100.00;102128.09;4942060;29;20027;-73
2022/10/04 06:19:47;;;;;;;25.55;12.90;;;;;;;7.73;100.00;102117.75;4999563;28;20033;-73
2022/10/04 06:22:20;;;;;;;23.15;13.40;;;;;;;7.85;100.00;102128.25;5011927;28;20036;-73
2022/10/04 06:24:55;;;;;;;21.23;12.95;;;;;;;7.89;100.00;102116.16;5011617;28;20022;-73
2022/10/04 06:27:40;;;;;;;23.90;11.73;;;;;;;7.96;100.00;102128.31;5011531;28;20068;-73
2022/10/04 06:30:13;;;;;;;25.60;11.80;;;;;;;7.99;100.00;102125.75;4999531;28;20057;-73
2022/10/04 06:33:19;;;;;;;23.53;11.83;;;;;;;8.03;100.00;102131.84;5010845;28;20108;-73
2022/10/04 06:36:01;;;;;;;23.25;11.07;;;;;;;8.09;100.00;102137.94;5010859;28;20478;-73
2022/10/04 06:38:46;;;;;;;19.25;10.75;;;;;;;8.10;100.00;102123.22;5010968;28;20026;-73
2022/10/04 06:41:39;;;;;;;21.60;10.75;;;;;;;8.12;100.00;102119.78;5011797;28;20030;-73
2022/10/04 06:44:04;;;;;;;21.33;10.68;;;;;;;8.11;100.00;102118.06;5011974;28;20072;-73
2022/10/04 06:46:48;;;;;;;18.33;10.87;;;;;;;8.08;100.00;102118.03;5010229;28;20437;-73
2022/10/04 06:49:41;;;;;;;25.38;11.07;;;;;;;8.02;100.00;102123.19;5011822;28;20624;-75
2022/10/04 06:52:22;;;;;;;27.75;10.98;;;;;;;7.97;100.00;102109.28;4998554;28;20556;-73
2022/10/04 06:55:15;;;;;;;19.45;9.95;;;;;;;7.93;100.00;102123.97;5013752;28;20026;-73
2022/10/04 06:58:25;;;;;;;19.63;10.23;;;;;;;7.85;100.00;102124.78;5014110;28;20040;-72
2022/10/04 07:01:03;;;;;;;17.33;10.60;;;;;;;7.86;100.00;102122.19;4999880;28;20030;-72
2022/10/04 07:03:45;;;;;;;23.67;10.95;;;;;;;7.84;100.00;102123.03;5013823;28;20037;-73
2022/10/04 07:06:11;;;;;;;21.33;10.63;;;;;;;7.81;100.00;102120.41;4998285;28;20389;-73
2022/10/04 07:08:43;;;;;;;21.40;10.95;;;;;;;7.81;100.00;102115.19;5001964;28;20029;-72
2022/10/04 07:11:17;;;;;;;26.27;11.82;;;;;;;7.84;100.00;102112.63;5007114;28;20026;-73
2022/10/04 07:14:15;;;;;;;20.13;11.10;;;;;;;7.90;100.00;102108.34;5009312;28;20054;-73
2022/10/04 07:16:48;;;;;;;24.77;11.40;;;;;;;7.92;100.00;102110.97;5009147;28;20489;-72
2022/10/04 07:19:26;;;;;;;22.67;11.65;;;;;;;8.00;100.00;102111.91;5016642;28;20546;-72
2022/10/04 07:22:06;;;;;;;23.00;12.18;;;;;;;8.08;100.00;102114.56;5012992;28;20034;-73
2022/10/04 07:24:47;;;;;;;26.27;11.90;;;;;;;8.17;100.00;102099.03;5002161;28;20113;-73
2022/10/04 07:27:18;;;;;;;26.67;12.93;;;;;;;8.20;100.00;102089.50;5009495;28;20038;-73
2022/10/04 07:29:45;;;;;;;24.00;11.95;;;;;;;8.30;100.00;102097.38;5014043;28;20069;-72
2022/10/04 07:32:33;;;;;;;29.73;13.07;;;;;;;8.37;100.00;102106.94;5012836;28;20025;-72
2022/10/04 07:35:08;;;;;;;24.77;11.80;;;;;;;8.44;100.00;102116.56;5012658;28;20069;-72
2022/10/04 07:37:48;;;;;;;22.73;11.88;;;;;;;8.52;100.00;102106.19;5013350;28;20022;-73
2022/10/04 07:40:35;;;;;;;29.70;12.55;;;;;;;8.58;100.00;102106.22;5009622;28;20056;-74
2022/10/04 07:43:09;;;;;;;25.52;12.48;;;;;;;8.63;100.00;102108.00;5011867;28;20084;-73
2022/10/04 07:45:40;;;;;;;24.38;11.80;;;;;;;8.73;100.00;102114.13;5014517;28;20064;-72
2022/10/04 07:48:14;;;;;;;30.08;12.90;;;;;;;8.77;100.00;102125.41;4999214;28;20060;-73
2022/10/04 07:50:51;;;;;;;19.63;11.63;;;;;;;8.84;100.00;102119.34;5006587;28;20031;-72
2022/10/04 07:53:24;;;;;;;22.63;10.73;;;;;;;8.87;100.00;102112.44;5014141;28;20041;-72
2022/10/04 07:56:06;;;;;;;20.85;10.68;;;;;;;8.96;100.00;102114.19;5014075;28;20026;-73
2022/10/04 07:58:51;;;;;;;23.90;10.90;;;;;;;9.01;100.00;102094.25;5013778;28;20026;-72
2022/10/04 08:01:27;;;;;;;20.00;11.80;;;;;;;9.11;100.00;102106.44;5008485;28;20030;-72
2022/10/04 08:04:11;;;;;;;19.73;10.63;;;;;;;9.22;100.00;102103.88;5012827;28;20062;-73
2022/10/04 08:06:48;;;;;;;28.08;10.68;;;;;;;9.33;100.00;102093.47;5007873;28;20030;-73
2022/10/04 08:09:29;;;;;;;22.02;10.48;;;;;;;9.44;100.00;102096.94;5002192;28;20105;-73
2022/10/04 08:11:57;;;;;;;18.95;9.93;;;;;;;9.53;100.00;102098.72;5005739;28;20080;-73
2022/10/04 08:14:51;;;;;;;21.90;9.70;;;;;;;9.61;100.00;102095.25;5011833;28;20378;-73
2022/10/04 08:17:44;;;;;;;18.23;9.65;;;;;;;9.72;100.00;102083.97;5013710;28;20022;-73
2022/10/04 08:20:24;;;;;;;18.63;9.05;;;;;;;9.84;100.00;102079.63;5007916;28;20073;-73
2022/10/04 08:23:17;;;;;;;15.52;8.82;;;;;;;9.97;100.00;102083.09;5000399;28;20050;-73
2022/10/04 08:26:10;;;;;;;17.27;8.50;;;;;;;10.07;100.00;102086.50;5015476;28;20026;-73
2022/10/04 08:32:14;;;;;;;13.27;8.45;;;;;;;10.33;100.00;102083.88;4981165;28;20044;-72
2022/10/04 08:35:04;;;;;;;12.98;8.00;;;;;;;10.45;100.00;102086.47;5012428;28;20042;-73
2022/10/04 08:38:15;;;;;;;13.52;8.23;;;;;;;10.47;100.00;102089.09;5019319;28;20029;-73
2022/10/04 08:40:52;;;;;;;12.50;7.50;;;;;;;10.48;100.00;102091.69;5012087;28;20033;-72
2022/10/04 08:43:33;;;;;;;14.40;7.40;;;;;;;10.54;100.00;102091.66;5013182;28;20050;-72
2022/10/04 08:46:39;;;;;;;18.35;8.27;;;;;;;10.63;100.00;102090.78;5012598;28;20036;-73
2022/10/04 08:49:38;;;;;;;12.85;7.18;;;;;;;10.80;100.00;102084.63;5012006;28;20046;-73
2022/10/04 08:52:30;;;;;;;17.80;8.20;;;;;;;10.97;100.00;102094.09;5007718;28;20033;-73
2022/10/04 08:55:27;;;;;;;17.10;8.38;;;;;;;11.08;100.00;102096.63;5012975;28;20026;-73
2022/10/04 08:58:08;;;;;;;16.25;9.10;;;;;;;11.18;100.00;102094.84;5013400;28;20025;-73
2022/10/04 09:00:48;;;;;;;16.55;8.35;;;;;;;11.28;100.00;102093.94;5012363;28;20026;-73
2022/10/04 09:03:40;;;;;;;13.90;7.90;;;;;;;11.40;100.00;102087.75;5013197;28;20034;-73
2022/10/04 09:06:35;;;;;;;18.20;8.55;;;;;;;11.53;100.00;102088.53;4989577;28;20045;-72
2022/10/04 09:09:12;;;;;;;14.48;8.40;;;;;;;11.61;100.00;102094.56;5012291;28;20021;-73
2022/10/04 09:12:06;;;;;;;17.80;8.27;;;;;;;11.73;100.00;102092.69;5011128;28;20045;-73
2022/10/04 09:14:55;;;;;;;11.88;8.18;;;;;;;11.86;100.00;102098.72;5001104;28;20026;-73
2022/10/04 09:17:38;;;;;;;15.63;8.00;;;;;;;11.98;100.00;102096.88;5007684;28;20034;-73
2022/10/04 09:20:20;;;;;;;15.82;8.43;;;;;;;12.05;100.00;102104.66;5012243;28;20038;-73
2022/10/04 09:23:11;;;;;;;19.17;8.32;;;;;;;12.15;100.00;102098.44;5013569;28;20362;-73
2022/10/04 09:25:47;;;;;;;15.38;7.30;;;;;;;12.20;100.00;102101.03;5011397;28;20087;-73
2022/10/04 09:28:31;;;;;;;14.38;7.38;;;;;;;12.29;100.00;102086.97;5011486;28;20084;-73
2022/10/04 09:31:34;;;;;;;16.00;7.88;;;;;;;12.34;100.00;102083.44;5008817;28;20453;-73
2022/10/04 09:34:31;;;;;;;17.70;8.30;;;;;;;12.43;100.00;102086.84;5014720;28;20025;-73
2022/10/04 09:37:31;;;;;;;14.65;7.70;;;;;;;12.51;100.00;102078.00;5005660;28;20473;-72
2022/10/04 09:40:10;;;;;;;13.15;7.13;;;;;;;12.56;100.00;102068.38;5012398;28;20414;-73
2022/10/04 09:42:56;;;;;;;12.95;6.45;;;;;;;12.63;100.00;102072.63;5008753;28;20030;-72
2022/10/04 09:45:43;;;;;;;13.27;6.30;;;;;;;12.71;100.00;102069.91;4999325;28;20025;-73
2022/10/04 09:48:24;;;;;;;14.48;6.75;;;;;;;12.77;100.00;102053.28;5011777;28;20042;-78
2022/10/04 09:51:13;;;;;;;11.63;6.80;;;;;;;12.89;100.00;102063.59;5012360;28;20343;-73
2022/10/04 09:54:05;;;;;;;12.55;6.95;;;;;;;13.01;100.00;102066.00;5011893;28;20419;-73
2022/10/04 09:56:43;;;;;;;13.45;6.93;;;;;;;13.10;100.00;102067.66;5011638;28;20052;-73
2022/10/04 09:59:45;;;;;;;10.75;6.00;;;;;;;13.17;100.00;102069.28;5015263;28;20048;-73
2022/10/04 10:02:12;;;;;;;14.50;6.32;;;;;;;13.23;100.00;102069.19;5010309;28;20030;-73
2022/10/04 10:05:12;;;;;;;14.57;7.05;;;;;;;13.34;100.00;102069.06;5010393;28;20606;-73
2022/10/04 10:07:59;;;;;;;13.32;6.68;;;;;;;13.39;100.00;102071.63;5005138;28;20033;-74
2022/10/04 10:13:48;;;;;;;11.85;6.28;;;;;;;13.48;100.00;102063.63;5012599;28;20033;-73
2022/10/04 10:16:34;;;;;;;12.32;6.80;;;;;;;13.55;100.00;102063.50;5009852;28;20123;-73
2022/10/04 10:19:18;;;;;;;14.57;7.28;;;;;;;13.62;98.86;102066.88;5008163;28;20045;-73
2022/10/04 10:21:58;;;;;;;10.50;6.47;;;;;;;13.68;100.00;102056.28;5007865;28;20133;-73
2022/10/04 10:24:32;;;;;;;12.40;6.60;;;;;;;13.80;97.63;102056.09;5005190;28;20034;-73
2022/10/04 10:27:23;;;;;;;15.73;6.75;;;;;;;13.93;99.32;102047.97;5010639;28;20486;-73
2022/10/04 10:30:13;;;;;;;11.43;6.55;;;;;;;14.06;97.74;102046.88;5009454;28;20044;-73
2022/10/04 10:33:05;;;;;;;13.90;6.25;;;;;;;14.19;98.00;102040.50;4998614;28;20049;-73
2022/10/04 10:36:04;;;;;;;10.90;5.70;;;;;;;14.30;95.97;102037.69;5011502;28;20389;-73
2022/10/04 10:39:14;;;;;;;10.85;5.78;;;;;;;14.49;94.81;102043.41;4997180;28;20034;-73
2022/10/04 10:41:54;;;;;;;11.10;5.80;;;;;;;14.72;94.98;102050.84;5007034;28;20034;-73
2022/10/04 10:44:28;;;;;;;12.23;5.82;;;;;;;14.86;89.51;102051.38;5002216;28;20026;-73
2022/10/04 10:47:12;;;;;;;11.15;5.70;;;;;;;15.15;91.96;102042.00;5007654;28;21620;-73
2022/10/04 10:49:55;;;;;;;;;;;;;;;15.40;95.32;102047.50;5008873;28;20661;-73
2022/10/04 10:52:53;;;;;;;15.38;5.50;;;;;;;15.74;90.93;102051.97;5004400;28;20000;-73
2022/10/04 10:55:56;;;;;;;8.13;5.03;;;;;;;15.86;86.96;102057.78;5014810;28;20474;-73
2022/10/04 10:58:43;;;;;;;11.07;5.32;;;;;;;15.77;86.33;102054.53;5000847;28;20246;-73
2022/10/04 11:01:23;;;;;;;10.15;5.03;;;;;;;15.60;91.37;102054.94;5007746;28;20080;-73
2022/10/04 11:04:18;;;;;;;12.45;5.35;;;;;;;15.45;89.92;102038.63;5011748;28;20045;-73
2022/10/04 11:07:04;;;;;;;9.00;5.57;;;;;;;15.67;89.83;102038.97;5014159;28;20034;-73
2022/10/04 11:09:45;;;;;;;11.05;5.72;;;;;;;15.81;83.35;102037.75;5014146;28;20088;-73
2022/10/04 11:12:31;;;;;;;11.05;5.50;;;;;;;15.94;86.49;102033.91;5015088;28;20030;-73
2022/10/04 11:15:38;;;;;;;7.78;5.25;;;;;;;16.10;89.21;102022.06;5015085;28;20049;-72
2022/10/04 11:18:39;;;;;;;11.75;5.53;;;;;;;16.37;87.64;102001.97;5012846;28;20045;-72
2022/10/04 11:21:26;;;;;;;10.00;5.10;;;;;;;16.60;83.28;102014.47;5000301;28;20049;-74
2022/10/04 11:24:17;;;;;;;10.95;4.40;;;;;;;16.77;82.72;102010.47;5011232;28;20481;-72
2022/10/04 11:26:48;;;;;;;14.85;4.57;;;;;;;16.81;77.14;102006.88;5001186;28;20033;-74
2022/10/04 11:29:22;;;;;;;14.23;4.28;;;;;;;16.96;77.53;102000.25;4998972;28;20120;-74
2022/10/04 11:31:59;;;;;;;10.23;4.88;;;;;;;17.16;81.60;101996.97;5011277;28;20123;-74
2022/10/04 11:34:34;;;;;;;9.98;4.20;;;;;;;17.32;78.78;101998.19;5014718;28;20469;-74
2022/10/04 11:37:00;;;;;;;8.57;4.22;;;;;;;17.67;76.72;102006.69;5006822;28;20038;-73
2022/10/04 11:39:50;;;;;;;11.23;4.45;;;;;;;18.08;78.99;101999.09;5008017;28;20037;-73
2022/10/04 11:42:29;;;;;;;10.77;4.22;;;;;;;18.54;72.14;101995.63;5014243;28;20037;-74
2022/10/04 11:45:18;;;;;;;9.15;3.80;;;;;;;19.03;72.76;101992.81;5013111;28;20032;-74
2022/10/04 11:47:57;;;;;;;6.72;3.83;;;;;;;19.57;69.60;101981.72;5013174;28;20077;-74
2022/10/04 11:50:48;;;;;;;9.65;4.30;;;;;;;20.14;69.75;101986.31;5013849;28;20033;-75
2022/10/04 11:53:34;;;;;;;6.68;3.90;;;;;;;20.71;63.68;101971.34;5014492;28;20037;-74
2022/10/04 11:56:18;;;;;;;7.15;3.70;;;;;;;21.12;67.39;101953.38;5013850;28;20381;-74
2022/10/04 11:58:51;;;;;;;7.13;4.05;;;;;;;21.10;62.05;101965.88;5014325;28;20052;-74
2022/10/04 12:01:25;;;;;;;6.75;3.15;;;;;;;20.92;61.82;101970.28;5013329;28;20061;-74
2022/10/04 12:04:34;;;;;;;6.25;3.70;;;;;;;20.76;67.12;101967.53;5011518;28;20038;-74
2022/10/04 12:07:22;;;;;;;6.97;3.42;;;;;;;20.60;66.81;101974.50;5006244;28;20083;-74
2022/10/04 12:10:02;;;;;;;8.07;3.58;;;;;;;20.14;62.30;101973.09;5013390;28;20025;-73
2022/10/04 12:12:37;;;;;;;8.68;3.47;;;;;;;19.84;64.03;101981.47;5016862;28;20052;-77
2022/10/04 12:15:23;;;;;;;6.20;3.67;;;;;;;19.63;60.80;101986.78;5020163;28;20363;-74
2022/10/04 12:18:19;;;;;;;6.05;3.38;;;;;;;20.22;66.14;101976.25;5000634;28;20064;-74